Time;durP1;ratioP1;P1;durP2;ratioP2;P2;SDS_P1;SDS_P2;PMS_P1;PMS_P2;Temp;Humidity;BMP_temperature;BMP_pressure;BME280_temperature;BME280_humidity;BME280_pressure;Samples;Min_cycle;Max_cycle;Signal;HPM_P1;HPM_P2
2021/10/22 00:00:02;;;;;;;3.20;2.30;;;9.70;99.90;;;;;;5019084;28;20525;-92
2021/10/22 00:02:29;;;;;;;5.93;2.23;;;9.70;99.90;;;;;;5019157;28;20458;-92
2021/10/22 00:04:56;;;;;;;2.27;1.70;;;9.70;99.90;;;;;;5018857;28;20481;-92
2021/10/22 00:07:23;;;;;;;2.07;1.90;;;9.60;99.90;;;;;;5019514;28;20453;-92
2021/10/22 00:09:52;;;;;;;2.80;1.90;;;9.60;99.90;;;;;;5017440;28;20482;-92
2021/10/22 00:12:19;;;;;;;2.83;2.20;;;9.50;99.90;;;;;;5017190;28;20450;-92
2021/10/22 00:14:45;;;;;;;4.57;2.77;;;9.50;99.90;;;;;;5016285;28;20434;-92
2021/10/22 00:17:12;;;;;;;3.50;2.43;;;9.40;99.90;;;;;;5015990;28;20468;-92
2021/10/22 00:19:40;;;;;;;3.70;2.20;;;9.30;99.90;;;;;;5015969;28;20464;-92
2021/10/22 00:22:07;;;;;;;4.47;2.47;;;9.20;99.90;;;;;;5016622;28;20457;-92
2021/10/22 00:24:33;;;;;;;4.30;2.50;;;9.10;99.90;;;;;;5016255;28;20430;-91
2021/10/22 00:27:02;;;;;;;4.63;2.70;;;9.10;99.90;;;;;;5016031;28;20461;-92
2021/10/22 00:29:28;;;;;;;3.07;2.13;;;9.00;99.90;;;;;;5015618;28;20490;-92
2021/10/22 00:31:55;;;;;;;2.50;2.30;;;9.00;99.90;;;;;;5016331;28;20461;-91
2021/10/22 00:34:22;;;;;;;3.00;2.70;;;9.10;99.90;;;;;;5018470;28;20461;-91
2021/10/22 00:36:50;;;;;;;2.93;2.40;;;9.00;99.90;;;;;;5016646;28;20506;-91
2021/10/22 00:39:17;;;;;;;2.47;1.87;;;9.00;99.90;;;;;;5019063;28;20470;-90
2021/10/22 00:41:44;;;;;;;4.60;3.47;;;9.00;99.90;;;;;;5036179;28;20462;-90
2021/10/22 00:44:12;;;;;;;2.90;2.10;;;9.10;99.90;;;;;;5027000;28;20453;-91
2021/10/22 00:46:39;;;;;;;3.97;2.60;;;9.10;99.90;;;;;;5040472;28;20533;-92
2021/10/22 00:49:08;;;;;;;2.67;2.47;;;9.10;99.90;;;;;;5030656;28;20486;-91
2021/10/22 00:51:35;;;;;;;3.40;2.57;;;9.00;99.90;;;;;;5019113;28;20806;-91
2021/10/22 00:54:05;;;;;;;3.70;3.10;;;8.90;99.90;;;;;;5016755;28;20458;-91
2021/10/22 00:56:32;;;;;;;5.00;2.63;;;8.90;99.90;;;;;;5015588;28;20871;-92
2021/10/22 00:58:59;;;;;;;4.23;3.10;;;8.90;99.90;;;;;;5015882;28;20982;-91
2021/10/22 01:01:28;;;;;;;3.30;2.77;;;8.90;99.90;;;;;;5016267;28;20434;-91
2021/10/22 01:03:55;;;;;;;3.57;2.90;;;9.00;99.90;;;;;;5015379;28;20821;-91
2021/10/22 01:06:21;;;;;;;3.23;2.70;;;9.10;99.90;;;;;;5015245;28;20450;-91
2021/10/22 01:08:48;;;;;;;5.30;4.50;;;9.10;99.90;;;;;;5015393;28;20548;-91
2021/10/22 01:11:16;;;;;;;2.40;2.20;;;9.20;99.90;;;;;;5015485;28;20500;-91
2021/10/22 01:13:43;;;;;;;4.43;2.73;;;9.20;99.90;;;;;;5028421;28;20447;-92
2021/10/22 01:16:10;;;;;;;3.30;2.60;;;9.20;99.90;;;;;;5025129;28;20469;-91
2021/10/22 01:18:38;;;;;;;3.90;2.70;;;9.20;99.90;;;;;;5015918;28;20979;-91
2021/10/22 01:21:11;;;;;;;3.30;3.00;;;9.20;99.90;;;;;;5014744;28;20826;-91
2021/10/22 01:23:39;;;;;;;3.93;2.30;;;9.30;99.90;;;;;;5023195;28;20442;-92
2021/10/22 01:26:06;;;;;;;2.87;2.67;;;9.20;99.90;;;;;;5016516;28;20455;-91
2021/10/22 01:28:33;;;;;;;7.70;3.20;;;9.30;99.90;;;;;;5014252;28;20462;-91
2021/10/22 01:30:59;;;;;;;2.90;2.50;;;9.30;99.90;;;;;;5014335;28;20485;-92
2021/10/22 01:33:27;;;;;;;6.10;2.53;;;9.30;99.90;;;;;;5014283;28;20458;-92
2021/10/22 01:35:54;;;;;;;4.30;2.10;;;9.30;99.90;;;;;;5014576;28;20533;-91
2021/10/22 01:38:25;;;;;;;5.77;2.67;;;9.30;99.90;;;;;;5013985;28;20617;-92
2021/10/22 01:40:55;;;;;;;4.17;2.40;;;9.40;99.90;;;;;;5015852;28;20443;-91
2021/10/22 01:43:23;;;;;;;5.57;2.60;;;9.40;99.90;;;;;;5013502;28;20537;-91
2021/10/22 01:45:51;;;;;;;5.73;2.20;;;9.40;99.90;;;;;;5014047;28;20461;-91
2021/10/22 01:48:18;;;;;;;6.17;2.27;;;9.20;99.90;;;;;;5013594;28;20541;-91
2021/10/22 01:50:45;;;;;;;3.30;2.10;;;9.10;99.90;;;;;;5013970;28;20490;-92
2021/10/22 01:53:13;;;;;;;3.60;2.70;;;9.20;99.90;;;;;;5014082;28;20450;-92
2021/10/22 01:55:42;;;;;;;5.27;2.43;;;9.30;99.90;;;;;;5014106;28;20545;-91
2021/10/22 01:58:10;;;;;;;4.30;2.30;;;9.30;99.90;;;;;;5013721;28;20465;-92
2021/10/22 02:00:37;;;;;;;4.10;2.50;;;9.30;99.90;;;;;;5013151;28;20450;-90
2021/10/22 02:03:05;;;;;;;1.97;1.87;;;9.20;99.90;;;;;;5013358;28;20455;-90
2021/10/22 02:05:32;;;;;;;8.10;2.77;;;9.20;99.90;;;;;;5013631;28;20465;-90
2021/10/22 02:07:59;;;;;;;3.10;2.47;;;9.10;99.90;;;;;;5013361;28;20505;-89
2021/10/22 02:10:26;;;;;;;6.17;2.20;;;9.00;99.90;;;;;;5013288;28;20478;-90
2021/10/22 02:12:54;;;;;;;6.17;2.57;;;9.00;99.90;;;;;;5013192;28;20446;-90
2021/10/22 02:15:21;;;;;;;3.73;2.47;;;8.90;99.90;;;;;;5013122;28;20457;-90
2021/10/22 02:17:47;;;;;;;3.50;2.70;;;8.90;99.90;;;;;;5013151;28;20466;-90
2021/10/22 02:20:14;;;;;;;5.33;2.50;;;8.70;99.90;;;;;;5014307;28;20474;-89
2021/10/22 02:22:42;;;;;;;5.90;2.90;;;8.60;99.90;;;;;;5013474;28;20523;-89
2021/10/22 02:25:09;;;;;;;4.33;2.60;;;8.50;99.90;;;;;;5019621;28;20446;-88
2021/10/22 02:27:36;;;;;;;5.90;2.50;;;8.50;99.90;;;;;;5033956;28;20454;-90
2021/10/22 02:30:05;;;;;;;3.40;2.30;;;8.50;99.90;;;;;;5033611;28;20488;-88
2021/10/22 02:32:32;;;;;;;8.07;2.97;;;8.40;99.90;;;;;;5031971;28;20458;-90
2021/10/22 02:34:59;;;;;;;3.17;2.10;;;8.40;99.90;;;;;;5034308;28;20461;-89
2021/10/22 02:37:26;;;;;;;3.63;2.03;;;8.30;99.90;;;;;;5035385;28;20430;-89
2021/10/22 02:39:53;;;;;;;3.90;2.10;;;8.20;99.90;;;;;;5026112;28;20574;-89
2021/10/22 02:42:20;;;;;;;5.40;3.27;;;8.20;99.90;;;;;;5023172;28;20459;-88
2021/10/22 02:44:46;;;;;;;3.50;1.97;;;8.10;99.90;;;;;;5039074;28;20441;-90
2021/10/22 02:47:14;;;;;;;9.83;2.13;;;8.10;99.90;;;;;;5014998;28;20434;-89
2021/10/22 02:49:41;;;;;;;2.73;2.53;;;8.10;99.90;;;;;;5022530;28;20470;-90
2021/10/22 02:52:08;;;;;;;3.33;2.10;;;8.00;99.90;;;;;;5015867;28;20569;-91
2021/10/22 02:54:35;;;;;;;4.50;2.30;;;8.10;99.90;;;;;;5030608;28;20455;-90
2021/10/22 02:57:01;;;;;;;7.13;3.13;;;8.20;99.90;;;;;;5038713;28;20423;-88
2021/10/22 02:59:28;;;;;;;4.57;1.83;;;8.10;99.90;;;;;;5037780;28;20457;-89
2021/10/22 03:01:55;;;;;;;4.80;2.70;;;8.10;99.90;;;;;;5017741;28;20446;-90
2021/10/22 03:04:23;;;;;;;3.40;1.93;;;8.10;99.90;;;;;;5016182;28;20818;-90
2021/10/22 03:06:50;;;;;;;6.77;2.47;;;8.00;99.90;;;;;;5014830;28;20449;-90
2021/10/22 03:09:17;;;;;;;4.50;2.37;;;8.00;99.90;;;;;;5015113;28;20470;-91
2021/10/22 03:11:43;;;;;;;7.93;2.27;;;7.90;99.90;;;;;;5015192;28;20477;-90
2021/10/22 03:14:10;;;;;;;6.97;1.73;;;7.90;99.90;;;;;;5014143;28;20454;-89
2021/10/22 03:16:37;;;;;;;2.67;2.40;;;7.80;99.90;;;;;;5015813;28;20803;-89
2021/10/22 03:19:03;;;;;;;4.57;2.70;;;7.80;99.90;;;;;;5014658;28;20874;-90
2021/10/22 03:21:32;;;;;;;2.87;1.83;;;7.70;99.90;;;;;;5013923;28;20966;-90
2021/10/22 03:23:58;;;;;;;5.90;2.90;;;7.70;99.90;;;;;;5014962;28;20823;-89
2021/10/22 03:26:25;;;;;;;3.60;2.47;;;7.60;99.90;;;;;;5014043;28;20442;-90
2021/10/22 03:28:52;;;;;;;5.20;2.37;;;7.60;99.90;;;;;;5012877;28;20489;-90
2021/10/22 03:31:19;;;;;;;5.23;2.37;;;7.60;99.90;;;;;;5014988;28;20478;-90
2021/10/22 03:33:46;;;;;;;3.13;2.03;;;7.60;99.90;;;;;;5033305;28;20457;-84
2021/10/22 03:36:13;;;;;;;12.23;3.17;;;7.60;99.90;;;;;;5031878;28;20502;-84
2021/10/22 03:38:44;;;;;;;4.60;2.50;;;7.60;99.90;;;;;;5045845;28;21019;-84
2021/10/22 03:41:11;;;;;;;5.03;2.87;;;7.60;99.90;;;;;;5035332;28;20452;-88
2021/10/22 03:43:37;;;;;;;3.50;1.97;;;7.60;99.90;;;;;;5028367;28;20967;-88
2021/10/22 03:46:05;;;;;;;10.70;2.80;;;7.60;99.90;;;;;;5011749;28;20977;-90
2021/10/22 03:48:31;;;;;;;6.67;2.83;;;7.60;99.90;;;;;;5013230;28;20841;-89
2021/10/22 03:50:58;;;;;;;5.60;2.20;;;7.60;99.90;;;;;;5013413;28;21045;-89
2021/10/22 03:53:25;;;;;;;3.70;1.93;;;7.50;99.90;;;;;;5012596;28;20453;-89
2021/10/22 03:55:53;;;;;;;6.23;2.17;;;7.50;99.90;;;;;;5012912;28;20446;-89
2021/10/22 03:58:20;;;;;;;8.63;3.00;;;7.40;99.90;;;;;;5016336;28;20477;-90
2021/10/22 04:00:47;;;;;;;6.00;2.80;;;7.40;99.90;;;;;;5013115;28;20450;-90
2021/10/22 04:03:14;;;;;;;6.63;3.00;;;7.50;99.90;;;;;;5015966;28;20517;-90
2021/10/22 04:05:41;;;;;;;5.93;3.63;;;7.50;99.90;;;;;;5012669;28;20450;-90
2021/10/22 04:08:07;;;;;;;8.57;2.93;;;7.50;99.90;;;;;;5015330;28;20456;-91
2021/10/22 04:10:34;;;;;;;7.53;3.43;;;7.40;99.90;;;;;;5023844;28;20488;-90
2021/10/22 04:13:02;;;;;;;10.20;2.77;;;7.40;99.90;;;;;;5036972;28;20450;-91
2021/10/22 04:15:29;;;;;;;6.33;3.90;;;7.40;99.90;;;;;;5031458;28;20465;-90
2021/10/22 04:17:56;;;;;;;5.37;1.93;;;7.30;99.90;;;;;;5023776;28;20971;-90
2021/10/22 04:20:23;;;;;;;6.00;3.17;;;7.20;99.90;;;;;;5020078;28;20450;-90
2021/10/22 04:22:50;;;;;;;9.20;3.30;;;7.20;99.90;;;;;;5018865;28;20468;-90
2021/10/22 04:25:16;;;;;;;8.90;3.87;;;7.20;99.90;;;;;;5036600;28;20424;-90
2021/10/22 04:27:43;;;;;;;14.10;3.27;;;7.20;99.90;;;;;;5032130;28;20993;-91
2021/10/22 04:30:12;;;;;;;7.23;2.33;;;7.20;99.90;;;;;;5018899;28;20442;-91
2021/10/22 04:32:39;;;;;;;3.70;2.60;;;7.20;99.90;;;;;;5018457;28;20478;-90
2021/10/22 04:35:06;;;;;;;6.77;3.13;;;7.10;99.90;;;;;;5019374;28;20457;-90
2021/10/22 04:37:34;;;;;;;8.17;2.90;;;7.10;99.90;;;;;;5021724;28;20449;-90
2021/10/22 04:42:52;;;;;;;10.33;3.40;;;7.00;99.90;;;;;;5022735;28;20461;-91
2021/10/22 04:45:20;;;;;;;11.60;3.63;;;7.00;99.90;;;;;;5021027;28;20514;-90
2021/10/22 04:47:47;;;;;;;14.90;3.73;;;7.00;99.90;;;;;;5021752;28;20469;-89
2021/10/22 04:50:14;;;;;;;7.50;3.13;;;7.00;99.90;;;;;;5027009;28;20442;-89
2021/10/22 04:52:41;;;;;;;11.13;3.50;;;7.00;99.90;;;;;;5020378;28;21061;-90
2021/10/22 04:55:10;;;;;;;9.57;3.20;;;6.90;99.90;;;;;;5021598;28;20442;-90
2021/10/22 04:57:37;;;;;;;7.97;3.50;;;7.00;99.90;;;;;;5022921;28;20454;-90
2021/10/22 05:00:05;;;;;;;9.47;3.10;;;7.00;99.90;;;;;;5016317;28;20446;-90
2021/10/22 05:02:33;;;;;;;14.10;3.83;;;7.00;99.90;;;;;;5015777;28;20457;-89
2021/10/22 05:04:59;;;;;;;8.13;3.37;;;6.90;99.90;;;;;;5025397;28;20458;-89
2021/10/22 05:07:26;;;;;;;8.53;3.33;;;6.90;99.90;;;;;;5018978;28;20442;-90
2021/10/22 05:09:53;;;;;;;10.20;4.43;;;6.90;99.90;;;;;;5015527;28;20485;-91
2021/10/22 05:12:19;;;;;;;9.07;4.10;;;6.90;99.90;;;;;;5017331;28;20488;-91
2021/10/22 05:14:46;;;;;;;7.53;4.00;;;6.80;99.90;;;;;;5016660;28;20834;-91
2021/10/22 05:17:13;;;;;;;13.83;4.33;;;6.80;99.90;;;;;;5018288;28;21051;-92
2021/10/22 05:19:41;;;;;;;7.93;3.40;;;6.80;99.90;;;;;;5034413;28;20442;-89
2021/10/22 05:22:08;;;;;;;6.67;3.57;;;6.70;99.90;;;;;;5025640;28;20453;-90
2021/10/22 05:24:35;;;;;;;6.50;3.60;;;6.70;99.90;;;;;;5024381;28;20473;-89
2021/10/22 05:27:01;;;;;;;14.03;5.33;;;6.70;99.90;;;;;;5019264;28;20480;-91
2021/10/22 05:29:28;;;;;;;9.27;5.10;;;6.70;99.90;;;;;;5014887;28;20486;-91
2021/10/22 05:31:55;;;;;;;8.30;3.90;;;6.60;99.90;;;;;;5028841;28;20489;-90
2021/10/22 05:34:22;;;;;;;9.93;4.90;;;6.60;99.90;;;;;;5029516;23;20546;-88
2021/10/22 05:36:51;;;;;;;11.37;4.20;;;6.60;99.90;;;;;;5036288;28;20440;-88
2021/10/22 05:39:19;;;;;;;6.67;4.03;;;6.60;99.90;;;;;;5035895;28;20830;-89
2021/10/22 05:41:47;;;;;;;14.07;4.40;;;6.60;99.90;;;;;;5043146;28;20460;-89
2021/10/22 05:44:14;;;;;;;8.60;3.63;;;6.60;99.90;;;;;;5034866;28;20441;-88
2021/10/22 05:46:41;;;;;;;10.57;3.90;;;6.60;99.90;;;;;;5035404;28;20433;-88
2021/10/22 05:49:08;;;;;;;7.47;3.50;;;6.60;99.90;;;;;;5029584;28;20811;-88
2021/10/22 05:51:35;;;;;;;6.80;4.03;;;6.50;99.90;;;;;;5015389;28;20486;-89
2021/10/22 05:54:03;;;;;;;9.97;4.00;;;6.50;99.90;;;;;;5015644;28;20450;-89
2021/10/22 05:56:30;;;;;;;8.57;4.53;;;6.50;99.90;;;;;;5031058;28;20946;-88
2021/10/22 05:58:57;;;;;;;10.20;4.23;;;6.50;99.90;;;;;;5035062;28;20930;-88
2021/10/22 06:01:23;;;;;;;10.57;4.60;;;6.50;99.90;;;;;;5042750;28;20455;-87
2021/10/22 06:03:51;;;;;;;11.23;4.20;;;6.50;99.90;;;;;;5035789;28;20454;-88
2021/10/22 06:06:17;;;;;;;17.73;4.67;;;6.50;99.90;;;;;;5026930;28;20470;-87
2021/10/22 06:08:44;;;;;;;6.73;4.10;;;6.40;99.90;;;;;;5035772;28;20438;-87
2021/10/22 06:11:12;;;;;;;10.27;4.90;;;6.40;99.90;;;;;;5036756;28;20489;-87
2021/10/22 06:13:40;;;;;;;10.53;4.73;;;6.40;99.90;;;;;;5024694;28;20442;-87
2021/10/22 06:16:08;;;;;;;12.17;4.13;;;6.40;99.90;;;;;;5035779;28;20497;-87
2021/10/22 06:18:37;;;;;;;10.20;4.80;;;6.40;99.90;;;;;;5016774;28;20446;-87
2021/10/22 06:21:07;;;;;;;22.83;5.60;;;6.40;99.90;;;;;;5017878;28;20438;-87
2021/10/22 06:26:19;;;;;;;16.13;5.47;;;6.40;99.90;;;;;;5021366;28;20541;-89
2021/10/22 06:28:47;;;;;;;17.90;6.40;;;6.50;99.90;;;;;;5014088;28;20438;-88
2021/10/22 06:31:15;;;;;;;16.73;5.10;;;6.50;99.90;;;;;;5015105;28;20530;-88
2021/10/22 06:33:42;;;;;;;20.63;5.27;;;6.50;99.90;;;;;;5036727;28;20457;-88
2021/10/22 06:36:09;;;;;;;10.80;5.17;;;6.50;99.90;;;;;;5024320;28;21049;-87
2021/10/22 06:38:36;;;;;;;13.47;5.43;;;6.60;99.90;;;;;;5034217;28;20442;-88
2021/10/22 06:41:04;;;;;;;14.87;7.13;;;6.60;99.90;;;;;;5016062;28;20454;-88
2021/10/22 06:43:32;;;;;;;11.53;5.70;;;6.60;99.90;;;;;;5015987;28;20458;-87
2021/10/22 06:45:59;;;;;;;11.33;5.40;;;6.70;99.90;;;;;;5030115;28;20473;-89
2021/10/22 06:48:26;;;;;;;10.53;5.13;;;6.70;99.90;;;;;;5055152;28;20500;-88
2021/10/22 06:50:53;;;;;;;11.77;4.47;;;6.70;99.90;;;;;;5045414;28;20449;-88
2021/10/22 06:53:20;;;;;;;11.67;5.70;;;6.80;99.90;;;;;;5037883;28;20508;-89
2021/10/22 06:55:47;;;;;;;15.10;6.33;;;6.90;99.90;;;;;;5036604;28;20477;-89
2021/10/22 06:58:14;;;;;;;16.17;5.77;;;7.00;99.90;;;;;;5038428;28;20453;-89
2021/10/22 07:00:45;;;;;;;13.40;4.90;;;7.00;99.90;;;;;;5038007;28;20457;-88
2021/10/22 07:03:16;;;;;;;14.73;7.10;;;7.10;99.90;;;;;;5038490;28;20449;-88
2021/10/22 07:08:27;;;;;;;18.37;7.50;;;7.20;99.90;;;;;;5038196;28;20433;-89
2021/10/22 07:10:53;;;;;;;21.03;7.80;;;7.20;99.90;;;;;;5027378;28;20446;-87
2021/10/22 07:13:21;;;;;;;17.37;10.00;;;7.30;99.90;;;;;;5023026;28;20489;-88
2021/10/22 07:15:49;;;;;;;12.77;8.33;;;7.40;99.90;;;;;;5025896;28;20893;-88
2021/10/22 07:18:16;;;;;;;16.10;7.73;;;7.50;99.90;;;;;;5037383;28;20471;-88
2021/10/22 07:20:43;;;;;;;14.70;7.80;;;7.50;99.90;;;;;;5033059;28;20452;-88
2021/10/22 07:23:10;;;;;;;11.53;5.00;;;7.60;99.90;;;;;;5014780;28;20445;-88
2021/10/22 07:25:41;;;;;;;8.70;5.30;;;7.60;99.90;;;;;;5014395;28;20478;-88
2021/10/22 07:28:10;;;;;;;15.77;5.87;;;7.60;99.90;;;;;;5017354;28;20449;-88
2021/10/22 07:30:41;;;;;;;6.10;3.27;;;7.70;99.90;;;;;;5017823;28;20541;-88
2021/10/22 07:33:09;;;;;;;13.30;3.87;;;7.90;99.90;;;;;;5020515;28;20541;-88
2021/10/22 07:35:38;;;;;;;7.00;4.57;;;7.90;99.90;;;;;;5014074;28;20509;-88
2021/10/22 07:38:09;;;;;;;9.60;4.40;;;8.00;99.90;;;;;;5030851;28;20441;-88
2021/10/22 07:40:36;;;;;;;7.13;3.87;;;8.00;99.90;;;;;;5035962;28;20457;-88
2021/10/22 07:43:03;;;;;;;10.87;2.70;;;8.10;99.90;;;;;;5054264;28;20441;-89
2021/10/22 07:45:30;;;;;;;9.53;4.00;;;8.20;99.90;;;;;;5049415;28;20479;-88
2021/10/22 07:47:56;;;;;;;9.20;3.60;;;8.30;99.90;;;;;;5048019;28;20455;-88
2021/10/22 07:50:25;;;;;;;10.77;3.43;;;8.30;99.90;;;;;;5050110;28;20942;-88
2021/10/22 07:52:52;;;;;;;11.30;3.00;;;8.50;99.90;;;;;;5040636;28;20491;-88
2021/10/22 07:55:18;;;;;;;9.23;3.73;;;8.60;99.90;;;;;;5053234;28;20474;-88
2021/10/22 07:57:45;;;;;;;10.33;3.90;;;8.60;99.90;;;;;;5060287;28;20500;-88
2021/10/22 08:00:13;;;;;;;11.50;5.63;;;8.70;99.90;;;;;;5045454;28;20545;-89
2021/10/22 08:02:40;;;;;;;12.20;2.90;;;8.80;99.90;;;;;;5039770;28;20449;-89
2021/10/22 08:05:08;;;;;;;11.23;3.50;;;9.40;99.90;;;;;;5037889;28;20473;-89
2021/10/22 08:07:38;;;;;;;8.20;2.90;;;10.20;99.90;;;;;;5040812;28;20453;-89
2021/10/22 08:10:07;;;;;;;9.13;2.87;;;11.80;99.90;;;;;;5038741;28;20902;-89
2021/10/22 08:12:34;;;;;;;9.60;2.70;;;13.50;99.90;;;;;;5037330;28;20488;-89
2021/10/22 08:15:02;;;;;;;8.50;2.70;;;15.10;96.40;;;;;;5037699;28;20473;-89
2021/10/22 08:17:28;;;;;;;9.70;2.37;;;16.50;92.70;;;;;;5032376;28;20453;-89
2021/10/22 08:19:58;;;;;;;12.67;4.30;;;16.40;90.00;;;;;;5016807;28;20780;-90
2021/10/22 08:22:27;;;;;;;11.93;2.70;;;15.40;87.80;;;;;;5016730;28;20531;-90
2021/10/22 08:24:59;;;;;;;7.83;2.70;;;14.50;88.60;;;;;;5016718;28;20457;-89
2021/10/22 08:27:27;;;;;;;13.70;2.63;;;13.70;90.30;;;;;;5038011;28;20818;-89
2021/10/22 08:29:54;;;;;;;11.73;2.57;;;13.00;91.50;;;;;;5036166;28;21006;-89
2021/10/22 08:32:21;;;;;;;11.87;3.10;;;12.40;93.00;;;;;;5028345;28;20477;-89
2021/10/22 08:34:47;;;;;;;7.83;2.43;;;11.90;92.90;;;;;;5029699;28;20492;-88
2021/10/22 08:37:14;;;;;;;12.53;2.70;;;11.60;94.10;;;;;;5037345;28;20415;-88
2021/10/22 08:39:45;;;;;;;8.20;2.33;;;11.30;94.30;;;;;;5035930;28;20439;-88
2021/10/22 08:42:18;;;;;;;6.07;3.00;;;11.30;95.40;;;;;;5039547;28;20635;-88
2021/10/22 08:44:45;;;;;;;7.50;2.40;;;11.20;95.90;;;;;;5054742;28;20465;-86
2021/10/22 08:47:14;;;;;;;7.13;3.40;;;11.00;96.20;;;;;;5053726;28;20461;-88
2021/10/22 08:49:41;;;;;;;8.17;2.63;;;11.00;96.60;;;;;;5041714;28;20504;-88
2021/10/22 08:52:09;;;;;;;14.80;3.53;;;11.00;97.00;;;;;;5038087;28;20496;-89
2021/10/22 08:54:39;;;;;;;8.67;2.43;;;10.90;97.10;;;;;;5045614;28;20469;-88
2021/10/22 08:57:06;;;;;;;13.30;2.73;;;11.00;96.70;;;;;;5037893;28;20495;-82
2021/10/22 08:59:34;;;;;;;6.60;2.23;;;11.00;96.80;;;;;;5024151;28;20457;-79
2021/10/22 09:02:20;;;;;;;12.87;3.07;;;11.10;96.80;;;;;;5023489;28;20445;-80
2021/10/22 09:04:48;;;;;;;7.07;2.70;;;11.20;97.20;;;;;;5023212;28;20852;-80
2021/10/22 09:07:16;;;;;;;6.70;3.03;;;11.30;97.50;;;;;;5023772;28;20453;-80
2021/10/22 09:09:44;;;;;;;10.70;2.73;;;11.40;97.20;;;;;;5022917;28;20443;-79
2021/10/22 09:12:11;;;;;;;6.93;2.40;;;11.30;96.70;;;;;;5028440;28;20478;-80
2021/10/22 09:14:57;;;;;;;9.13;2.90;;;11.30;96.30;;;;;;5025301;28;20842;-79
2021/10/22 09:17:37;;;;;;;7.57;2.67;;;11.30;96.30;;;;;;5037510;28;20434;-86
2021/10/22 09:20:05;;;;;;;6.73;2.90;;;11.30;96.10;;;;;;5040096;28;20414;-90
2021/10/22 09:22:34;;;;;;;9.43;3.20;;;11.30;95.60;;;;;;5039717;28;20438;-89
2021/10/22 09:25:11;;;;;;;7.37;2.30;;;11.30;95.70;;;;;;5039436;28;20453;-90
2021/10/22 09:27:44;;;;;;;7.10;2.77;;;11.50;95.90;;;;;;5028315;28;20553;-87
2021/10/22 09:30:29;;;;;;;10.73;2.20;;;11.60;96.30;;;;;;5037807;28;20956;-89
2021/10/22 09:32:57;;;;;;;6.47;2.10;;;12.00;95.20;;;;;;5052275;28;20472;-88
2021/10/22 09:35:44;;;;;;;5.13;2.60;;;12.10;94.80;;;;;;5055778;28;20496;-88
2021/10/22 09:38:17;;;;;;;9.23;2.00;;;12.20;94.50;;;;;;5053797;28;20445;-89
2021/10/22 09:40:45;;;;;;;9.53;2.50;;;12.30;94.40;;;;;;5053276;28;20446;-88
2021/10/22 09:43:22;;;;;;;10.03;3.00;;;12.40;94.80;;;;;;5045122;28;20463;-88
2021/10/22 09:45:53;;;;;;;7.33;2.40;;;12.60;93.80;;;;;;5030024;28;20463;-88
2021/10/22 09:48:29;;;;;;;4.90;1.50;;;12.50;92.00;;;;;;5022599;28;20454;-88
2021/10/22 09:50:58;;;;;;;5.63;2.10;;;12.50;90.70;;;;;;5019931;28;20455;-88
2021/10/22 09:53:30;;;;;;;4.40;2.30;;;12.40;90.00;;;;;;5019580;28;20500;-88
2021/10/22 09:56:05;;;;;;;6.13;2.20;;;12.50;89.90;;;;;;5019267;28;20506;-88
2021/10/22 09:58:32;;;;;;;7.47;3.50;;;12.50;89.30;;;;;;5018724;28;20513;-89
2021/10/22 10:01:13;;;;;;;6.87;2.70;;;12.90;90.30;;;;;;5018800;28;20448;-89
2021/10/22 10:03:42;;;;;;;5.40;1.67;;;14.00;83.60;;;;;;5017391;28;20450;-89
2021/10/22 10:06:11;;;;;;;3.50;1.60;;;16.50;75.90;;;;;;5017548;28;20454;-89
2021/10/22 10:08:39;;;;;;;4.53;2.17;;;18.60;66.00;;;;;;5017726;28;20459;-88
2021/10/22 10:11:07;;;;;;;6.03;1.87;;;20.20;59.60;;;;;;5018797;28;20431;-87
2021/10/22 10:13:35;;;;;;;5.17;2.10;;;22.60;55.20;;;;;;5020050;28;20475;-88
2021/10/22 10:16:04;;;;;;;4.60;1.80;;;23.60;50.40;;;;;;5034596;28;20473;-89
2021/10/22 10:18:38;;;;;;;7.60;2.73;;;24.90;47.50;;;;;;5022450;28;20512;-88
2021/10/22 10:21:10;;;;;;;5.60;1.90;;;24.50;45.90;;;;;;5017145;28;20445;-90
2021/10/22 10:23:41;;;;;;;5.57;2.10;;;23.70;46.10;;;;;;5017033;28;20450;-87
2021/10/22 10:26:23;;;;;;;5.10;2.43;;;24.30;47.50;;;;;;5031853;28;20478;-88
2021/10/22 10:28:51;;;;;;;4.33;1.50;;;23.80;46.10;;;;;;5016205;28;20514;-88
2021/10/22 10:31:37;;;;;;;4.93;2.60;;;24.50;45.60;;;;;;5025529;28;20435;-89
2021/10/22 10:34:43;;;;;;;9.70;2.20;;;25.90;44.70;;;;;;5012349;28;20504;-90
2021/10/22 10:37:43;;;;;;;5.93;2.87;;;25.30;40.30;;;;;;5035058;28;20447;-88
2021/10/22 10:40:14;;;;;;;5.90;1.80;;;24.40;39.80;;;;;;4964765;29;20850;-89
2021/10/22 10:42:47;;;;;;;3.57;1.70;;;25.20;41.30;;;;;;5008540;28;20448;-88
2021/10/22 10:45:43;;;;;;;4.03;1.60;;;25.70;40.00;;;;;;5029880;28;20461;-90
2021/10/22 10:48:13;;;;;;;3.60;1.67;;;26.80;39.50;;;;;;5017010;28;20541;-90
2021/10/22 10:50:47;;;;;;;5.37;1.77;;;26.90;38.20;;;;;;5025365;28;20499;-88
2021/10/22 10:53:17;;;;;;;5.33;2.17;;;27.40;37.20;;;;;;5034851;28;20477;-89
2021/10/22 10:55:46;;;;;;;6.40;2.23;;;27.80;36.30;;;;;;5037306;28;20473;-90
2021/10/22 10:58:19;;;;;;;4.93;2.23;;;27.60;35.70;;;;;;5039084;28;20449;-89
2021/10/22 11:00:49;;;;;;;4.53;1.63;;;27.00;35.80;;;;;;5020289;28;20457;-87
2021/10/22 11:03:19;;;;;;;6.83;2.70;;;27.40;35.50;;;;;;5015618;28;20438;-90
2021/10/22 11:06:09;;;;;;;6.40;3.27;;;27.80;35.30;;;;;;5015309;28;20466;-90
2021/10/22 11:08:49;;;;;;;6.13;3.33;;;28.00;35.60;;;;;;5020210;28;20919;-90
2021/10/22 11:11:34;;;;;;;3.10;2.20;;;28.00;35.30;;;;;;5024556;28;20461;-90
2021/10/22 11:14:20;;;;;;;3.13;2.00;;;28.50;34.70;;;;;;5037574;28;20991;-90
2021/10/22 11:16:49;;;;;;;4.80;2.60;;;28.60;34.10;;;;;;5018686;28;21195;-89
2021/10/22 11:19:22;;;;;;;3.90;1.70;;;28.40;32.90;;;;;;5021991;28;20434;-89
2021/10/22 11:21:53;;;;;;;3.97;1.90;;;28.20;32.70;;;;;;5021966;28;20419;-89
2021/10/22 11:24:22;;;;;;;3.67;1.80;;;27.90;32.80;;;;;;5025385;28;20450;-89
2021/10/22 11:26:57;;;;;;;5.37;1.97;;;28.20;31.80;;;;;;5040649;28;20459;-90
2021/10/22 11:29:24;;;;;;;5.33;2.30;;;28.10;31.30;;;;;;5044284;28;20960;-90
2021/10/22 11:32:10;;;;;;;3.87;1.40;;;28.30;30.60;;;;;;5045165;28;20456;-88
2021/10/22 11:37:20;;;;;;;3.50;1.40;;;26.00;31.20;;;;;;4996268;28;20462;-85
2021/10/22 11:39:50;;;;;;;4.67;1.50;;;25.90;30.80;;;;;;4997640;28;20454;-85
2021/10/22 11:42:24;;;;;;;4.60;2.33;;;25.30;30.00;;;;;;4997629;28;20459;-86
2021/10/22 11:44:55;;;;;;;5.63;2.80;;;25.20;32.00;;;;;;4997782;28;20453;-85
2021/10/22 11:47:23;;;;;;;3.03;1.53;;;25.50;31.80;;;;;;5015868;28;20460;-84
2021/10/22 11:49:50;;;;;;;5.97;1.60;;;25.50;31.30;;;;;;5020132;28;20441;-85
2021/10/22 11:52:19;;;;;;;4.23;1.67;;;26.20;32.10;;;;;;5010896;28;20502;-86
2021/10/22 12:11:20;;;;;;;7.27;1.73;;;26.40;30.70;;;;;;4863589;29;20931;-85
2021/10/22 12:13:47;;;;;;;3.87;1.43;;;25.20;31.50;;;;;;4990255;28;20585;-85
2021/10/22 12:16:16;;;;;;;4.83;1.90;;;23.30;31.20;;;;;;4996186;28;20476;-85
2021/10/22 12:18:44;;;;;;;2.90;1.67;;;21.80;33.90;;;;;;5003307;28;20477;-85
2021/10/22 12:21:12;;;;;;;2.83;1.73;;;20.60;35.00;;;;;;5018285;28;20438;-85
2021/10/22 12:23:39;;;;;;;3.73;1.50;;;19.70;36.90;;;;;;5013075;28;20544;-85
2021/10/22 12:26:21;;;;;;;6.53;2.10;;;19.20;37.80;;;;;;5016699;28;20528;-84
2021/10/22 12:28:58;;;;;;;3.63;1.47;;;19.30;38.80;;;;;;5007794;28;20531;-85
2021/10/22 12:31:34;;;;;;;3.43;1.80;;;19.10;39.70;;;;;;5001565;28;20473;-85
2021/10/22 12:34:08;;;;;;;3.87;2.00;;;18.20;38.60;;;;;;5009611;28;20485;-85
2021/10/22 12:36:37;;;;;;;3.63;1.70;;;17.70;40.00;;;;;;4999301;28;20598;-85
2021/10/22 12:39:21;;;;;;;4.10;1.53;;;17.30;41.60;;;;;;4999331;28;20458;-85
2021/10/22 12:41:51;;;;;;;3.43;1.50;;;17.00;42.60;;;;;;4980487;28;20451;-86
2021/10/22 12:44:21;;;;;;;2.53;1.17;;;16.70;42.90;;;;;;4979487;28;20447;-85
2021/10/22 12:46:55;;;;;;;2.60;1.60;;;16.50;43.60;;;;;;4994715;28;20472;-85
2021/10/22 12:49:27;;;;;;;3.57;1.70;;;16.40;44.50;;;;;;4986479;28;20447;-85
2021/10/22 12:51:58;;;;;;;4.03;1.80;;;16.30;45.40;;;;;;4979461;28;20443;-87
2021/10/22 12:54:25;;;;;;;5.07;2.27;;;16.40;46.00;;;;;;4998846;28;20882;-86
2021/10/22 12:57:04;;;;;;;8.23;2.60;;;16.70;46.30;;;;;;4998411;28;20475;-85
2021/10/22 12:59:31;;;;;;;7.53;2.43;;;16.80;45.60;;;;;;4997013;28;20455;-86
2021/10/22 13:01:59;;;;;;;2.97;1.50;;;16.70;45.10;;;;;;4996801;28;20527;-86
2021/10/22 13:04:28;;;;;;;3.70;2.83;;;16.90;45.30;;;;;;4996700;28;20447;-86
2021/10/22 13:07:00;;;;;;;4.50;1.87;;;17.40;45.90;;;;;;4996234;28;21186;-86
2021/10/22 13:09:41;;;;;;;3.40;1.17;;;18.00;44.40;;;;;;4995769;28;20455;-86
2021/10/22 13:20:37;;;;;;;2.80;1.73;;;20.30;42.40;;;;;;5001467;28;20458;-86
2021/10/22 13:23:09;;;;;;;3.87;2.17;;;20.70;41.20;;;;;;5009338;28;20460;-87
2021/10/22 13:25:38;;;;;;;6.90;1.50;;;21.00;41.20;;;;;;5008883;28;20529;-86
2021/10/22 13:28:06;;;;;;;5.03;2.97;;;20.40;41.90;;;;;;5011301;28;20439;-85
2021/10/22 13:30:40;;;;;;;6.43;3.80;;;18.90;43.40;;;;;;5018918;28;20435;-85
2021/10/22 13:33:11;;;;;;;8.53;3.77;;;18.30;45.10;;;;;;5013505;28;20451;-85
2021/10/22 13:35:38;;;;;;;5.77;2.80;;;18.00;46.00;;;;;;5003434;28;20471;-86